Time;durP1;ratioP1;P1;durP2;ratioP2;P2;SDS_P1;SDS_P2;PMS_P1;PMS_P2;Temp;Humidity;BMP_temperature;BMP_pressure;BME280_temperature;BME280_humidity;BME280_pressure;Samples;Min_cycle;Max_cycle;Signal;HPM_P1;HPM_P2
2022/04/29 00:00:08;;;;;;;;;;;11.40;66.80;;;;;;5051645;28;19908;-74
2022/04/29 00:02:34;;;;;;;;;;;11.30;67.40;;;;;;5051559;28;19908;-73
2022/04/29 00:05:00;;;;;;;;;;;11.20;68.10;;;;;;5051681;28;19909;-74
2022/04/29 00:07:25;;;;;;;;;;;11.30;68.10;;;;;;5052058;28;19928;-74
2022/04/29 00:09:51;;;;;;;;;;;11.20;68.50;;;;;;5050549;28;20007;-74
2022/04/29 00:12:19;;;;;;;;;;;11.20;68.60;;;;;;5051360;28;20323;-74
2022/04/29 00:14:45;;;;;;;;;;;11.10;69.40;;;;;;5051651;28;19943;-74
2022/04/29 00:17:11;;;;;;;;;;;11.00;69.40;;;;;;5051491;28;20287;-74
2022/04/29 00:19:37;;;;;;;;;;;11.00;69.50;;;;;;5052047;28;19955;-74
2022/04/29 00:22:37;;;;;;;;;;;11.10;69.40;;;;;;5050310;28;20346;-74
2022/04/29 00:25:03;;;;;;;;;;;11.10;69.30;;;;;;5051289;28;19995;-73
2022/04/29 00:27:29;;;;;;;;;;;11.10;69.20;;;;;;5051398;28;19944;-74
2022/04/29 00:29:54;;;;;;;;;;;11.10;69.80;;;;;;5050276;28;19940;-74
2022/04/29 00:32:38;;;;;;;;;;;11.10;69.80;;;;;;5050196;28;19931;-74
2022/04/29 00:35:05;;;;;;;;;;;11.00;69.80;;;;;;5051479;28;19913;-73
2022/04/29 00:38:02;;;;;;;;;;;11.00;70.40;;;;;;5051603;28;19962;-74
2022/04/29 00:40:28;;;;;;;;;;;10.90;71.00;;;;;;5051263;28;19920;-75
2022/04/29 00:42:54;;;;;;;;;;;10.70;72.10;;;;;;5051120;28;20325;-74
2022/04/29 00:45:20;;;;;;;;;;;10.60;72.20;;;;;;5051617;28;20036;-74
2022/04/29 00:47:46;;;;;;;;;;;10.70;73.00;;;;;;5051289;28;20402;-74
2022/04/29 00:50:13;;;;;;;;;;;10.70;73.50;;;;;;5051074;28;19959;-74
2022/04/29 00:52:40;;;;;;;;;;;10.70;73.80;;;;;;5051452;28;19962;-74
2022/04/29 00:55:07;;;;;;;;;;;10.70;74.40;;;;;;5051105;28;19913;-74
2022/04/29 00:57:45;;;;;;;;;;;10.70;74.30;;;;;;5053661;28;19959;-74
2022/04/29 01:00:11;;;;;;;;;;;10.70;74.90;;;;;;5055240;28;19912;-74
2022/04/29 01:02:37;;;;;;;;;;;10.70;75.00;;;;;;5054943;28;19970;-74
2022/04/29 01:05:05;;;;;;;;;;;10.70;75.40;;;;;;5054876;28;19980;-74
2022/04/29 01:07:32;;;;;;;;;;;10.70;76.00;;;;;;5055234;28;19897;-74
2022/04/29 01:09:57;;;;;;;;;;;10.60;76.40;;;;;;5054783;28;19908;-75
2022/04/29 01:12:41;;;;;;;;;;;10.50;76.90;;;;;;5054673;28;19920;-74
2022/04/29 01:15:08;;;;;;;;;;;10.60;77.60;;;;;;5053581;28;19912;-75
2022/04/29 01:17:37;;;;;;;;;;;10.50;78.20;;;;;;5054582;28;19916;-74
2022/04/29 01:20:13;;;;;;;;;;;10.40;78.70;;;;;;5054434;28;19962;-74
2022/04/29 01:22:38;;;;;;;;;;;10.40;79.00;;;;;;5054917;28;20000;-75
2022/04/29 01:25:04;;;;;;;;;;;10.30;79.90;;;;;;5054900;28;19919;-75
2022/04/29 01:27:36;;;;;;;;;;;10.30;79.90;;;;;;5053531;28;19909;-75
2022/04/29 01:30:03;;;;;;;;;;;10.40;80.00;;;;;;5054511;28;20007;-75
2022/04/29 01:32:30;;;;;;;;;;;10.30;81.00;;;;;;5054383;28;19917;-75
2022/04/29 01:34:55;;;;;;;;;;;10.20;81.80;;;;;;5053983;28;20295;-75
2022/04/29 01:37:58;;;;;;;;;;;10.10;82.60;;;;;;5054706;28;19909;-74
2022/04/29 01:40:23;;;;;;;;;;;10.10;82.90;;;;;;5053787;28;20351;-74
2022/04/29 01:42:49;;;;;;;;;;;10.10;83.10;;;;;;5054105;28;19924;-74
2022/04/29 01:45:15;;;;;;;;;;;10.10;83.50;;;;;;5053136;28;19963;-74
2022/04/29 01:50:44;;;;;;;;;;;10.30;84.00;;;;;;5053841;28;19988;-74
2022/04/29 01:53:09;;;;;;;;;;;10.20;84.60;;;;;;5053847;28;20525;-75
2022/04/29 01:55:34;;;;;;;;;;;10.20;85.40;;;;;;5054382;28;19972;-74
2022/04/29 01:58:12;;;;;;;;;;;10.10;85.50;;;;;;5054041;28;19909;-75
2022/04/29 02:00:38;;;;;;;;;;;10.10;85.70;;;;;;5053890;28;19917;-75
2022/04/29 02:03:03;;;;;;;;;;;10.20;85.80;;;;;;5052475;28;19966;-75
2022/04/29 02:05:29;;;;;;;;;;;10.20;86.00;;;;;;5052569;28;20327;-74
2022/04/29 02:07:57;;;;;;;;;;;10.20;86.50;;;;;;5052382;28;19915;-76
2022/04/29 02:10:23;;;;;;;;;;;10.20;85.90;;;;;;5054195;28;19914;-76
2022/04/29 02:12:49;;;;;;;;;;;10.20;86.50;;;;;;5053614;28;19912;-75
2022/04/29 02:15:14;;;;;;;;;;;10.20;86.20;;;;;;5053625;28;19963;-75
2022/04/29 02:18:11;;;;;;;;;;;10.30;87.30;;;;;;5053655;28;20313;-75
2022/04/29 02:20:36;;;;;;;;;;;10.20;87.40;;;;;;5053241;28;19919;-76
2022/04/29 02:23:33;;;;;;;;;;;10.20;88.10;;;;;;5053353;28;20379;-75
2022/04/29 02:25:59;;;;;;;;;;;10.20;88.50;;;;;;5053184;28;20311;-75
2022/04/29 02:28:25;;;;;;;;;;;10.20;88.50;;;;;;5053670;28;19901;-75
2022/04/29 02:30:50;;;;;;;;;;;10.20;88.90;;;;;;5053442;28;20220;-76
2022/04/29 02:33:15;;;;;;;;;;;10.20;89.10;;;;;;5052085;28;19917;-74
2022/04/29 02:35:41;;;;;;;;;;;10.20;89.00;;;;;;5053183;28;19916;-74
2022/04/29 02:38:09;;;;;;;;;;;10.20;89.10;;;;;;5053001;28;19905;-75
2022/04/29 02:40:35;;;;;;;;;;;10.10;89.60;;;;;;5053671;28;19917;-75
2022/04/29 02:43:22;;;;;;;;;;;10.10;89.70;;;;;;5052009;28;20018;-75
2022/04/29 02:45:48;;;;;;;;;;;10.10;90.00;;;;;;5053283;28;19919;-75
2022/04/29 02:48:15;;;;;;;;;;;10.10;90.10;;;;;;5052963;28;20265;-75
2022/04/29 02:50:40;;;;;;;;;;;9.90;90.90;;;;;;5052889;28;19909;-75
2022/04/29 02:53:21;;;;;;;;;;;9.90;91.00;;;;;;5053052;28;20297;-75
2022/04/29 02:55:47;;;;;;;;;;;9.80;91.20;;;;;;5053021;28;19909;-75
2022/04/29 03:01:15;;;;;;;;;;;9.80;91.50;;;;;;5052625;28;19919;-75
2022/04/29 03:03:41;;;;;;;;;;;9.90;91.50;;;;;;5052638;28;19913;-75
2022/04/29 03:06:06;;;;;;;;;;;9.90;91.50;;;;;;5052729;28;19912;-75
2022/04/29 03:08:50;;;;;;;;;;;9.90;91.50;;;;;;5052600;28;19908;-74
2022/04/29 03:11:15;;;;;;;;;;;9.90;91.60;;;;;;5035273;28;20290;-75
2022/04/29 03:13:41;;;;;;;;;;;9.90;91.60;;;;;;5032981;28;19913;-75
2022/04/29 03:16:07;;;;;;;;;;;9.90;91.70;;;;;;5032939;28;19913;-75
2022/04/29 03:18:32;;;;;;;;;;;9.80;91.80;;;;;;5033521;28;19971;-75
2022/04/29 03:20:58;;;;;;;;;;;9.90;91.90;;;;;;5052079;28;19908;-75
2022/04/29 03:23:54;;;;;;;;;;;10.00;91.50;;;;;;5051192;28;19966;-74
2022/04/29 03:26:20;;;;;;;;;;;9.90;92.00;;;;;;5052195;28;19920;-74
2022/04/29 03:28:46;;;;;;;;;;;9.80;92.00;;;;;;5052483;28;20321;-75
2022/04/29 03:31:11;;;;;;;;;;;9.80;92.20;;;;;;5052208;28;19952;-76
2022/04/29 03:33:37;;;;;;;;;;;9.80;92.30;;;;;;5052106;28;19913;-76
2022/04/29 03:36:03;;;;;;;;;;;9.70;92.30;;;;;;5049476;28;19920;-75
2022/04/29 03:38:44;;;;;;;;;;;9.70;92.40;;;;;;5052045;28;19909;-74
2022/04/29 03:41:09;;;;;;;;;;;9.70;92.40;;;;;;5051738;28;20074;-75
2022/04/29 03:43:35;;;;;;;;;;;9.70;92.40;;;;;;5051011;28;19962;-75
2022/04/29 03:46:00;;;;;;;;;;;9.80;92.40;;;;;;5051945;28;19912;-73
2022/04/29 03:54:23;;;;;;;;;;;9.70;92.50;;;;;;5051634;28;20012;-74
2022/04/29 03:59:51;;;;;;;;;;;9.70;92.50;;;;;;5051409;28;19919;-74
2022/04/29 04:05:19;;;;;;;;;;;9.70;92.60;;;;;;5051412;28;19920;-75
2022/04/29 04:10:48;;;;;;;;;;;9.60;92.70;;;;;;5051431;28;19959;-74
2022/04/29 04:13:14;;;;;;;;;;;9.40;93.00;;;;;;5051899;28;19947;-75
2022/04/29 04:15:40;;;;;;;;;;;9.30;93.30;;;;;;5051640;28;19909;-75
2022/04/29 04:18:41;;;;;;;;;;;9.30;93.30;;;;;;5051219;28;20593;-75
2022/04/29 04:21:06;;;;;;;;;;;9.40;93.10;;;;;;5051424;28;20330;-74
2022/04/29 04:24:03;;;;;;;;;;;9.40;93.20;;;;;;5051275;28;19909;-75
2022/04/29 04:26:28;;;;;;;;;;;9.50;93.20;;;;;;5051313;28;19996;-75
2022/04/29 04:28:54;;;;;;;;;;;9.60;93.30;;;;;;5046030;28;20082;-74
2022/04/29 04:31:21;;;;;;;;;;;9.40;93.30;;;;;;5050704;28;19999;-75
2022/04/29 04:34:49;;;;;;;;;;;9.40;93.30;;;;;;5049988;28;19913;-74
2022/04/29 04:36:48;;;;;;;;;;;9.40;93.30;;;;;;5051034;28;20003;-75
2022/04/29 04:39:14;;;;;;;;;;;9.40;93.30;;;;;;5049975;28;19908;-75
2022/04/29 04:44:43;;;;;;;;;;;9.40;93.40;;;;;;5044346;28;19977;-75
2022/04/29 04:50:11;;;;;;;;;;;9.50;93.40;;;;;;5051074;28;19967;-75
2022/04/29 04:55:40;;;;;;;;;;;9.50;93.50;;;;;;5051216;28;19986;-75
2022/04/29 04:58:32;;;;;;;;;;;9.40;93.60;;;;;;5047955;28;20338;-75
2022/04/29 05:00:59;;;;;;;;;;;9.40;93.60;;;;;;5031158;28;19963;-74
2022/04/29 05:03:46;;;;;;;;;;;9.50;93.70;;;;;;5031061;28;19920;-75
2022/04/29 05:06:11;;;;;;;;;;;9.50;93.70;;;;;;5051106;28;19998;-74
2022/04/29 05:09:02;;;;;;;;;;;9.50;93.70;;;;;;5050534;28;20330;-75
2022/04/29 05:11:28;;;;;;;;;;;9.50;93.80;;;;;;5050739;28;19912;-75
2022/04/29 05:16:56;;;;;;;;;;;9.50;93.80;;;;;;5043151;28;19980;-75
2022/04/29 05:19:22;;;;;;;;;;;9.60;93.90;;;;;;5051305;28;19907;-76
2022/04/29 05:21:47;;;;;;;;;;;9.60;93.90;;;;;;5050708;28;19934;-75
2022/04/29 05:24:13;;;;;;;;;;;9.60;93.90;;;;;;5050831;28;19991;-76
2022/04/29 05:26:39;;;;;;;;;;;9.70;93.90;;;;;;5050989;28;19943;-74
2022/04/29 05:29:05;;;;;;;;;;;9.60;93.90;;;;;;5050673;28;19905;-76
2022/04/29 05:31:31;;;;;;;;;;;9.50;94.10;;;;;;5050994;28;19908;-74
2022/04/29 05:33:56;;;;;;;;;;;9.50;94.10;;;;;;5050362;28;19913;-74
2022/04/29 05:36:22;;;;;;;;;;;9.30;94.10;;;;;;5050398;28;20314;-75
2022/04/29 05:44:16;;;;;;;;;;;9.60;94.20;;;;;;5053792;28;19924;-75
2022/04/29 05:46:41;;;;;;;;;;;9.70;94.10;;;;;;5053295;28;19908;-75
2022/04/29 05:49:10;;;;;;;;;;;9.70;94.00;;;;;;5054060;28;19991;-76
2022/04/29 05:51:35;;;;;;;;;;;9.80;93.90;;;;;;5053836;28;19924;-75
2022/04/29 05:54:01;;;;;;;;;;;9.90;93.80;;;;;;5054095;28;19916;-75
2022/04/29 05:56:29;;;;;;;;;;;9.90;93.80;;;;;;5054046;28;20243;-75
2022/04/29 05:58:55;;;;;;;;;;;10.00;93.40;;;;;;5053815;28;19916;-76
2022/04/29 06:01:21;;;;;;;;;;;10.10;93.30;;;;;;5053208;28;19905;-76
2022/04/29 06:03:47;;;;;;;;;;;10.10;93.10;;;;;;5052597;28;20278;-76
2022/04/29 06:06:13;;;;;;;;;;;10.10;93.20;;;;;;5053459;28;19908;-75
2022/04/29 06:08:38;;;;;;;;;;;10.10;93.10;;;;;;5052501;28;20304;-76
2022/04/29 06:11:07;;;;;;;;;;;10.20;93.10;;;;;;5053693;28;20276;-73
2022/04/29 06:13:32;;;;;;;;;;;10.20;93.10;;;;;;5052792;28;19984;-74
2022/04/29 06:15:59;;;;;;;;;;;10.30;93.10;;;;;;5052962;28;19912;-75
2022/04/29 06:18:25;;;;;;;;;;;10.20;93.20;;;;;;5052178;28;20369;-75
2022/04/29 06:20:50;;;;;;;;;;;10.20;93.30;;;;;;5052098;28;19943;-76
2022/04/29 06:23:16;;;;;;;;;;;10.20;93.20;;;;;;5053100;28;20079;-76
2022/04/29 06:25:41;;;;;;;;;;;10.20;93.30;;;;;;5053564;28;19948;-75
2022/04/29 06:28:07;;;;;;;;;;;10.20;93.30;;;;;;5053123;28;19909;-75
2022/04/29 06:30:32;;;;;;;;;;;10.30;93.40;;;;;;5052877;28;19909;-76
2022/04/29 06:32:58;;;;;;;;;;;10.40;93.30;;;;;;5051827;28;19919;-75
2022/04/29 06:35:25;;;;;;;;;;;10.50;93.20;;;;;;5051677;28;19951;-75
2022/04/29 06:37:50;;;;;;;;;;;10.60;93.00;;;;;;5053230;28;19905;-75
2022/04/29 06:40:16;;;;;;;;;;;10.70;92.90;;;;;;5052736;28;20373;-75
2022/04/29 06:42:45;;;;;;;;;;;10.80;93.00;;;;;;5052747;28;19939;-76
2022/04/29 06:45:12;;;;;;;;;;;10.80;92.90;;;;;;5053041;28;19952;-75
2022/04/29 06:47:37;;;;;;;;;;;10.90;92.90;;;;;;5053144;28;19909;-76
2022/04/29 06:50:03;;;;;;;;;;;11.10;93.00;;;;;;5053027;28;19905;-75
2022/04/29 06:52:29;;;;;;;;;;;11.30;92.50;;;;;;5052191;28;19981;-75
2022/04/29 06:54:55;;;;;;;;;;;11.60;92.30;;;;;;5051882;28;19908;-76
2022/04/29 06:57:21;;;;;;;;;;;11.90;91.60;;;;;;5051287;28;19915;-75
2022/04/29 06:59:49;;;;;;;;;;;12.60;91.20;;;;;;5052585;28;20330;-74
2022/04/29 07:02:16;;;;;;;;;;;13.10;90.20;;;;;;5051338;28;19908;-74
2022/04/29 07:04:41;;;;;;;;;;;13.40;89.00;;;;;;5052850;28;19962;-75
2022/04/29 07:07:07;;;;;;;;;;;13.40;88.50;;;;;;5051211;28;19956;-74
2022/04/29 07:09:32;;;;;;;;;;;13.30;88.10;;;;;;5052118;28;19908;-74
2022/04/29 07:11:59;;;;;;;;;;;13.40;87.60;;;;;;5052175;28;20019;-75
2022/04/29 07:14:25;;;;;;;;;;;13.50;87.40;;;;;;5052185;28;20398;-74
2022/04/29 07:16:50;;;;;;;;;;;13.60;86.80;;;;;;5051297;28;19999;-74
2022/04/29 07:19:16;;;;;;;;;;;13.50;86.60;;;;;;5050803;28;19914;-75
2022/04/29 07:21:42;;;;;;;;;;;13.60;86.40;;;;;;5051951;28;19912;-75
2022/04/29 07:24:08;;;;;;;;;;;13.80;85.60;;;;;;5052142;28;20513;-74
2022/04/29 07:26:33;;;;;;;;;;;14.10;84.80;;;;;;5052049;28;20291;-73
2022/04/29 07:28:59;;;;;;;;;;;14.50;84.20;;;;;;5050771;28;20007;-74
2022/04/29 07:31:24;;;;;;;;;;;14.80;83.50;;;;;;5052261;28;19901;-75
2022/04/29 07:33:51;;;;;;;;;;;15.00;81.50;;;;;;5051959;28;20228;-75
2022/04/29 07:41:44;;;;;;;;;;;16.00;78.60;;;;;;4990115;28;19983;-74
2022/04/29 07:42:06;;;;;;;;;;;16.10;77.30;;;;;;4989979;28;20008;-75
2022/04/29 07:44:31;;;;;;;;;;;17.30;76.60;;;;;;5026996;28;20011;-75
2022/04/29 07:46:57;;;;;;;;;;;18.10;72.50;;;;;;5051706;28;19909;-74
2022/04/29 07:49:22;;;;;;;;;;;18.40;71.40;;;;;;5052150;28;20236;-76
2022/04/29 07:51:48;;;;;;;;;;;19.00;70.40;;;;;;5051378;28;20276;-75
2022/04/29 07:54:15;;;;;;;;;;;19.50;68.20;;;;;;5051699;28;20307;-76
2022/04/29 07:56:40;;;;;;;;;;;19.10;65.70;;;;;;5051443;28;19909;-75
2022/04/29 07:59:05;;;;;;;;;;;19.60;67.30;;;;;;5051369;28;19909;-76
2022/04/29 08:01:33;;;;;;;;;;;20.40;65.50;;;;;;5052006;28;19908;-76
2022/04/29 08:03:59;;;;;;;;;;;20.60;62.30;;;;;;5051229;28;19908;-75
2022/04/29 08:06:26;;;;;;;;;;;21.50;61.70;;;;;;5050228;28;19908;-76
2022/04/29 08:08:52;;;;;;;;;;;22.00;59.20;;;;;;5051438;28;19917;-75
2022/04/29 08:11:18;;;;;;;;;;;22.60;57.80;;;;;;5050093;28;19915;-75
2022/04/29 08:13:44;;;;;;;;;;;22.80;56.70;;;;;;5051744;28;19911;-75
2022/04/29 08:16:10;;;;;;;;;;;22.80;56.10;;;;;;5051323;28;20331;-74
2022/04/29 08:18:36;;;;;;;;;;;23.20;55.00;;;;;;5051422;28;20309;-75
2022/04/29 08:21:01;;;;;;;;;;;23.40;54.60;;;;;;5050957;28;20008;-75
2022/04/29 08:23:27;;;;;;;;;;;23.80;53.70;;;;;;5050335;28;19909;-75
2022/04/29 08:25:52;;;;;;;;;;;24.60;52.20;;;;;;5051230;28;20319;-74
2022/04/29 08:28:18;;;;;;;;;;;24.70;51.50;;;;;;5051241;28;20022;-75
2022/04/29 08:30:44;;;;;;;;;;;24.80;50.20;;;;;;5051092;28;20000;-74
2022/04/29 08:33:13;;;;;;;;;;;25.10;49.60;;;;;;5049432;28;19966;-75
2022/04/29 08:35:39;;;;;;;;;;;25.50;48.60;;;;;;5050784;28;19908;-75
2022/04/29 08:38:09;;;;;;;;;;;25.70;47.30;;;;;;5049900;28;20426;-75
2022/04/29 08:40:39;;;;;;;;;;;26.20;47.20;;;;;;5051145;28;19917;-74
2022/04/29 08:43:05;;;;;;;;;;;26.30;46.70;;;;;;5050943;28;20007;-75
2022/04/29 08:45:30;;;;;;;;;;;26.30;46.30;;;;;;5050888;28;20007;-75
2022/04/29 08:47:56;;;;;;;;;;;26.80;44.80;;;;;;5049650;28;19912;-76
2022/04/29 08:50:22;;;;;;;;;;;26.20;44.00;;;;;;5051087;28;19977;-75
2022/04/29 08:52:49;;;;;;;;;;;27.00;44.30;;;;;;5051424;28;19936;-75
2022/04/29 09:00:44;;;;;;;;;;;28.40;41.80;;;;;;5051050;28;19935;-73
2022/04/29 09:03:13;;;;;;;;;;;28.20;41.30;;;;;;5050798;28;20000;-74
2022/04/29 09:05:39;;;;;;;;;;;28.40;41.30;;;;;;5049860;28;19916;-74
2022/04/29 09:08:05;;;;;;;;;;;27.80;40.50;;;;;;5051057;28;19904;-74
2022/04/29 09:10:34;;;;;;;;;;;27.10;41.30;;;;;;5051562;28;20254;-74
2022/04/29 09:13:26;;;;;;;;;;;28.00;42.40;;;;;;5051249;28;19945;-73
2022/04/29 09:15:54;;;;;;;;;;;28.00;40.60;;;;;;5048816;28;19916;-75
2022/04/29 09:18:32;;;;;;;;;;;28.40;40.80;;;;;;5051862;28;19909;-75
2022/04/29 09:20:58;;;;;;;;;;;28.30;40.60;;;;;;5054824;28;19909;-75
2022/04/29 09:23:30;;;;;;;;;;;27.20;40.20;;;;;;5053418;28;19908;-74
2022/04/29 09:25:59;;;;;;;;;;;26.00;41.20;;;;;;5054598;28;19905;-74
2022/04/29 09:28:25;;;;;;;;;;;26.00;41.90;;;;;;5055115;28;19907;-75
2022/04/29 09:30:53;;;;;;;;;;;25.70;42.30;;;;;;5054489;28;20288;-74
2022/04/29 09:33:20;;;;;;;;;;;26.20;41.60;;;;;;5054250;28;19923;-74
2022/04/29 09:35:46;;;;;;;;;;;26.70;40.80;;;;;;5054120;28;19999;-74
2022/04/29 09:40:57;;;;;;;;;;;28.30;40.30;;;;;;5054204;28;20365;-75
2022/04/29 09:43:43;;;;;;;;;;;29.40;39.40;;;;;;5054626;28;19904;-76
2022/04/29 09:46:22;;;;;;;;;;;29.50;38.70;;;;;;5054394;28;19919;-75
2022/04/29 09:48:56;;;;;;;;;;;29.80;38.30;;;;;;5053329;28;19908;-75
2022/04/29 09:51:37;;;;;;;;;;;29.80;37.90;;;;;;5054160;28;19917;-74
2022/04/29 09:54:07;;;;;;;;;;;29.40;38.10;;;;;;5052855;28;19920;-76
2022/04/29 09:56:32;;;;;;;;;;;29.30;38.00;;;;;;5053823;28;19917;-76
2022/04/29 09:58:58;;;;;;;;;;;28.90;38.00;;;;;;5053716;28;20067;-75
2022/04/29 10:01:23;;;;;;;;;;;28.60;38.00;;;;;;5054432;28;19901;-74
2022/04/29 10:03:49;;;;;;;;;;;27.50;38.20;;;;;;5053562;28;19908;-73
2022/04/29 10:06:16;;;;;;;;;;;27.60;39.80;;;;;;5053782;28;19913;-74
2022/04/29 10:08:43;;;;;;;;;;;27.60;39.50;;;;;;5053549;28;19966;-74
2022/04/29 10:11:09;;;;;;;;;;;28.00;39.30;;;;;;5053339;28;20047;-75
2022/04/29 10:13:35;;;;;;;;;;;27.90;39.20;;;;;;5053976;28;19912;-73
2022/04/29 10:16:05;;;;;;;;;;;27.50;39.10;;;;;;5052518;28;19987;-74
2022/04/29 10:21:18;;;;;;;;;;;27.10;40.40;;;;;;5053409;28;19963;-74
2022/04/29 10:23:50;;;;;;;;;;;26.80;40.00;;;;;;5052491;28;19908;-74
2022/04/29 10:26:16;;;;;;;;;;;26.30;40.50;;;;;;5053281;28;19912;-73
2022/04/29 10:28:43;;;;;;;;;;;26.30;40.70;;;;;;5052740;28;19913;-74
2022/04/29 10:31:15;;;;;;;;;;;25.90;41.00;;;;;;5053118;28;19948;-74
2022/04/29 10:33:41;;;;;;;;;;;25.30;41.90;;;;;;5053200;28;19912;-75
2022/04/29 10:36:07;;;;;;;;;;;24.60;42.70;;;;;;5053193;28;20062;-74
2022/04/29 10:38:37;;;;;;;;;;;24.50;42.70;;;;;;5052098;28;19912;-75
2022/04/29 10:41:09;;;;;;;;;;;24.10;42.90;;;;;;5051952;28;19917;-74
2022/04/29 10:43:46;;;;;;;;;;;24.20;43.20;;;;;;5053417;28;19900;-73
2022/04/29 10:46:13;;;;;;;;;;;24.10;44.20;;;;;;5052364;28;19920;-73
2022/04/29 10:48:39;;;;;;;;;;;23.60;44.00;;;;;;5051366;28;20257;-75
2022/04/29 10:51:08;;;;;;;;;;;23.50;44.20;;;;;;5052417;28;19909;-73
2022/04/29 10:53:38;;;;;;;;;;;23.10;44.60;;;;;;5051440;28;20334;-75
2022/04/29 10:56:22;;;;;;;;;;;22.90;44.70;;;;;;5052532;28;19974;-74
2022/04/29 10:58:47;;;;;;;;;;;21.70;45.30;;;;;;5052849;28;19919;-75
2022/04/29 11:01:23;;;;;;;;;;;21.70;45.90;;;;;;5052409;28;20453;-75
2022/04/29 11:03:49;;;;;;;;;;;22.00;46.60;;;;;;5052431;28;19909;-75
2022/04/29 11:06:14;;;;;;;;;;;22.30;46.30;;;;;;5052493;28;19967;-73
2022/04/29 11:08:41;;;;;;;;;;;22.30;46.20;;;;;;5051109;28;19913;-74
2022/04/29 11:11:07;;;;;;;;;;;22.30;46.30;;;;;;5052376;28;20014;-74
2022/04/29 11:13:37;;;;;;;;;;;22.10;46.20;;;;;;5052608;28;19916;-74
2022/04/29 11:16:10;;;;;;;;;;;22.00;46.50;;;;;;5052057;28;20438;-75
2022/04/29 11:18:36;;;;;;;;;;;21.90;46.70;;;;;;5052186;28;19908;-75
2022/04/29 11:24:40;;;;;;;;;;;22.00;46.40;;;;;;5051157;28;20400;-73
2022/04/29 11:26:42;;;;;;;;;;;21.70;46.50;;;;;;5052407;28;19966;-76
2022/04/29 11:29:11;;;;;;;;;;;21.80;46.80;;;;;;5052011;28;19967;-74
2022/04/29 11:31:36;;;;;;;;;;;21.90;46.70;;;;;;5051617;28;20011;-75
2022/04/29 11:34:08;;;;;;;;;;;21.80;46.70;;;;;;5051719;28;20007;-73
2022/04/29 11:36:33;;;;;;;;;;;21.70;46.60;;;;;;5051616;28;19908;-75
2022/04/29 11:39:00;;;;;;;;;;;21.40;46.50;;;;;;5051535;28;20330;-74
2022/04/29 11:41:28;;;;;;;;;;;21.50;46.90;;;;;;5049899;28;19921;-73
2022/04/29 11:43:56;;;;;;;;;;;21.50;46.90;;;;;;5051810;28;19905;-74
2022/04/29 11:46:21;;;;;;;;;;;21.20;47.00;;;;;;5050940;28;19928;-74
2022/04/29 11:48:51;;;;;;;;;;;21.10;47.10;;;;;;5050579;28;20377;-74
2022/04/29 11:51:17;;;;;;;;;;;20.90;47.40;;;;;;5051257;28;19913;-74
2022/04/29 11:54:02;;;;;;;;;;;21.20;47.80;;;;;;5050134;28;19916;-75
2022/04/29 11:56:35;;;;;;;;;;;21.60;46.70;;;;;;5051217;28;19996;-75
2022/04/29 11:59:04;;;;;;;;;;;21.80;46.60;;;;;;5051258;28;20510;-75
2022/04/29 12:01:30;;;;;;;;;;;21.70;46.40;;;;;;5050902;28;19908;-75
2022/04/29 12:03:56;;;;;;;;;;;21.60;46.20;;;;;;5051338;28;19908;-74
2022/04/29 12:06:21;;;;;;;;;;;21.30;46.20;;;;;;5050298;28;19920;-75
2022/04/29 12:08:47;;;;;;;;;;;21.20;46.60;;;;;;5050205;28;20250;-74
2022/04/29 12:11:21;;;;;;;;;;;21.00;46.10;;;;;;5050053;28;20315;-76
2022/04/29 12:13:46;;;;;;;;;;;20.80;46.50;;;;;;5051530;28;19913;-74
2022/04/29 12:16:12;;;;;;;;;;;20.60;46.80;;;;;;5050163;28;19981;-74
2022/04/29 12:18:45;;;;;;;;;;;20.80;46.90;;;;;;5050988;28;19919;-73
2022/04/29 12:21:11;;;;;;;;;;;20.50;46.80;;;;;;5051409;28;19966;-75
2022/04/29 12:23:36;;;;;;;;;;;20.80;47.40;;;;;;5050866;28;19916;-74
2022/04/29 12:26:07;;;;;;;;;;;21.00;47.00;;;;;;5051023;28;19982;-74
2022/04/29 12:28:35;;;;;;;;;;;21.10;46.60;;;;;;5051644;28;19977;-75
2022/04/29 12:36:46;;;;;;;;;;;21.10;46.80;;;;;;5050979;28;19962;-74
2022/04/29 12:39:12;;;;;;;;;;;21.10;46.80;;;;;;5050744;28;19916;-75
2022/04/29 12:41:38;;;;;;;;;;;21.20;46.60;;;;;;5049539;28;19921;-74
2022/04/29 12:44:10;;;;;;;;;;;21.20;46.50;;;;;;5049780;28;19915;-74
2022/04/29 12:46:36;;;;;;;;;;;21.20;46.60;;;;;;5050751;28;19904;-74
2022/04/29 12:49:02;;;;;;;;;;;21.20;46.70;;;;;;5049952;28;19920;-74
2022/04/29 12:51:28;;;;;;;;;;;21.20;48.40;;;;;;5050629;28;19909;-74
2022/04/29 12:53:57;;;;;;;;;;;21.00;48.80;;;;;;5054190;28;19908;-74
2022/04/29 12:56:33;;;;;;;;;;;20.80;49.00;;;;;;5054841;28;19943;-76
2022/04/29 12:58:59;;;;;;;;;;;20.90;49.20;;;;;;5054882;28;19995;-75
2022/04/29 13:01:24;;;;;;;;;;;20.80;49.60;;;;;;5054274;28;20074;-75
2022/04/29 13:03:52;;;;;;;;;;;20.70;49.70;;;;;;5054833;28;19980;-74
2022/04/29 13:06:20;;;;;;;;;;;20.70;49.70;;;;;;5054729;28;19909;-74
2022/04/29 13:08:46;;;;;;;;;;;20.70;49.90;;;;;;5053736;28;19919;-75
2022/04/29 13:11:19;;;;;;;;;;;20.70;50.40;;;;;;5054660;28;19921;-75
2022/04/29 13:13:45;;;;;;;;;;;20.60;51.00;;;;;;5054022;28;19920;-74
2022/04/29 13:16:10;;;;;;;;;;;20.30;51.30;;;;;;5054573;28;20262;-75
2022/04/29 13:18:36;;;;;;;;;;;20.40;51.50;;;;;;5054770;28;20341;-75
2022/04/29 13:21:06;;;;;;;;;;;20.50;51.50;;;;;;5053272;28;20327;-74
2022/04/29 13:23:33;;;;;;;;;;;20.30;51.40;;;;;;5053218;28;19912;-75
2022/04/29 13:25:59;;;;;;;;;;;20.30;51.50;;;;;;5045757;28;19905;-74
2022/04/29 13:28:24;;;;;;;;;;;20.40;51.50;;;;;;5054681;28;19901;-74
2022/04/29 13:30:50;;;;;;;;;;;20.40;51.40;;;;;;5054129;28;19915;-74
2022/04/29 13:33:15;;;;;;;;;;;20.40;51.60;;;;;;5053962;28;19952;-75
2022/04/29 13:35:41;;;;;;;;;;;20.20;51.50;;;;;;5052734;28;19912;-73
2022/04/29 13:38:07;;;;;;;;;;;20.20;51.70;;;;;;5054074;28;19908;-74
2022/04/29 13:40:33;;;;;;;;;;;20.20;51.60;;;;;;5054344;28;19956;-73
2022/04/29 13:42:59;;;;;;;;;;;20.10;51.80;;;;;;5052531;28;19979;-74
2022/04/29 13:45:25;;;;;;;;;;;20.20;51.70;;;;;;5054068;28;20007;-76
2022/04/29 13:47:51;;;;;;;;;;;20.20;51.80;;;;;;5053706;28;19936;-74
2022/04/29 13:50:17;;;;;;;;;;;20.00;51.60;;;;;;5052686;28;19921;-74
2022/04/29 13:55:27;;;;;;;;;;;20.00;51.80;;;;;;5053871;28;20046;-76
2022/04/29 13:57:53;;;;;;;;;;;19.90;51.90;;;;;;5053770;28;20003;-73
2022/04/29 14:00:18;;;;;;;;;;;19.80;52.10;;;;;;5053941;28;19909;-74
2022/04/29 14:02:44;;;;;;;;;;;19.80;51.90;;;;;;5053643;28;20397;-73
2022/04/29 14:05:10;;;;;;;;;;;19.90;52.00;;;;;;5053454;28;19999;-73
2022/04/29 14:07:37;;;;;;;;;;;19.80;51.90;;;;;;5054188;28;19913;-74
2022/04/29 14:10:03;;;;;;;;;;;19.40;52.20;;;;;;5053658;28;19974;-75
2022/04/29 14:12:29;;;;;;;;;;;19.50;52.40;;;;;;5053464;28;19991;-75
2022/04/29 14:14:55;;;;;;;;;;;19.50;52.10;;;;;;5053531;28;19995;-73
2022/04/29 14:17:24;;;;;;;;;;;19.50;52.30;;;;;;5053319;28;19931;-73
2022/04/29 14:19:49;;;;;;;;;;;19.40;52.40;;;;;;5052582;28;19915;-73
2022/04/29 14:22:15;;;;;;;;;;;19.40;52.60;;;;;;5053370;28;19996;-74
2022/04/29 14:24:41;;;;;;;;;;;19.40;52.30;;;;;;5053416;28;19966;-75
2022/04/29 14:27:06;;;;;;;;;;;19.40;52.40;;;;;;5052182;28;19944;-74
2022/04/29 14:29:39;;;;;;;;;;;19.30;52.50;;;;;;5053061;28;20376;-73
2022/04/29 14:32:09;;;;;;;;;;;19.30;52.50;;;;;;5053192;28;19909;-74
2022/04/29 14:34:35;;;;;;;;;;;19.30;52.40;;;;;;5053411;28;19983;-74
2022/04/29 14:37:02;;;;;;;;;;;19.10;52.40;;;;;;5053023;28;20070;-74
2022/04/29 14:39:28;;;;;;;;;;;19.00;52.60;;;;;;5053143;28;19923;-73
2022/04/29 14:41:57;;;;;;;;;;;19.00;52.40;;;;;;5052768;28;20011;-73
2022/04/29 14:44:23;;;;;;;;;;;18.90;52.50;;;;;;5052729;28;19948;-74
2022/04/29 14:46:49;;;;;;;;;;;18.90;52.40;;;;;;5052320;28;20012;-74
2022/04/29 14:49:15;;;;;;;;;;;18.90;52.30;;;;;;5052689;28;19952;-74
2022/04/29 14:51:40;;;;;;;;;;;18.80;52.50;;;;;;5052769;28;19916;-75
2022/04/29 14:54:07;;;;;;;;;;;18.80;52.50;;;;;;5052762;28;20006;-74
2022/04/29 14:56:40;;;;;;;;;;;18.80;52.40;;;;;;5053127;28;20342;-74
2022/04/29 14:59:10;;;;;;;;;;;18.80;52.00;;;;;;5052569;28;19905;-73
2022/04/29 15:01:36;;;;;;;;;;;18.80;51.90;;;;;;5053010;28;19900;-73
2022/04/29 15:04:03;;;;;;;;;;;18.80;51.70;;;;;;5052584;28;20007;-74
2022/04/29 15:06:29;;;;;;;;;;;18.80;51.40;;;;;;5052761;28;19908;-73
2022/04/29 15:17:15;;;;;;;;;;;18.80;50.30;;;;;;5052194;28;19918;-75
2022/04/29 15:19:40;;;;;;;;;;;18.80;50.00;;;;;;5051652;28;19912;-74
2022/04/29 15:22:06;;;;;;;;;;;18.90;49.70;;;;;;5052511;28;20272;-74
2022/04/29 15:24:31;;;;;;;;;;;18.80;49.70;;;;;;5052660;28;19912;-76
2022/04/29 15:26:57;;;;;;;;;;;18.90;49.90;;;;;;5052191;28;20326;-75
2022/04/29 15:29:22;;;;;;;;;;;18.80;49.90;;;;;;5050923;28;20338;-74
2022/04/29 15:31:48;;;;;;;;;;;18.90;50.20;;;;;;5052422;28;20444;-74
2022/04/29 15:34:14;;;;;;;;;;;19.00;50.20;;;;;;5051922;28;19909;-74
2022/04/29 15:36:39;;;;;;;;;;;18.90;50.20;;;;;;5052104;28;20323;-74